createdAt,value
2022-08-19T00:01:31.800Z,23.54
2022-08-19T00:03:59.874Z,23.38
2022-08-19T00:06:28.489Z,23.27
2022-08-19T00:08:56.443Z,23.28
2022-08-19T00:11:26.094Z,23.11
2022-08-19T00:13:53.696Z,23.11
2022-08-19T00:16:25.109Z,22.96
2022-08-19T00:18:56.169Z,22.92
2022-08-19T00:21:24.940Z,22.93
2022-08-19T00:23:52.164Z,22.91
2022-08-19T00:26:19.380Z,22.76
2022-08-19T00:28:47.577Z,22.85
2022-08-19T00:31:15.061Z,22.93
2022-08-19T00:33:42.519Z,23.02
2022-08-19T00:36:10.835Z,23.09
2022-08-19T00:38:40.167Z,23.19
2022-08-19T00:41:07.799Z,23.25
2022-08-19T00:43:35.908Z,23.32
2022-08-19T00:46:05.619Z,23.39
2022-08-19T00:48:34.546Z,23.32
2022-08-19T00:51:02.736Z,23.25
2022-08-19T00:53:32.159Z,23.08
2022-08-19T00:56:01.226Z,23.09
2022-08-19T00:58:31.572Z,23.06
2022-08-19T01:00:58.884Z,22.96
2022-08-19T01:03:26.071Z,22.92
2022-08-19T01:05:53.656Z,22.87
2022-08-19T01:08:21.704Z,22.88
2022-08-19T01:10:55.269Z,22.96
2022-08-19T01:13:25.935Z,23.04
2022-08-19T01:15:56.502Z,23.17
2022-08-19T01:18:23.809Z,23.30
2022-08-19T01:20:51.162Z,23.30
2022-08-19T01:23:19.919Z,22.98
2022-08-19T01:25:52.421Z,22.66
2022-08-19T01:28:39.875Z,22.60
2022-08-19T01:31:26.456Z,22.52
2022-08-19T01:33:57.078Z,22.26
2022-08-19T01:36:36.214Z,22.15
2022-08-19T01:39:08.157Z,22.18
2022-08-19T01:41:36.087Z,22.22
2022-08-19T01:44:17.366Z,22.20
2022-08-19T01:46:48.307Z,22.23
2022-08-19T01:49:16.377Z,22.21
2022-08-19T01:51:45.090Z,22.19
2022-08-19T01:54:23.403Z,22.09
2022-08-19T01:56:59.076Z,21.89
2022-08-19T01:59:28.430Z,21.62
2022-08-19T02:01:56.051Z,21.52
2022-08-19T02:04:24.345Z,21.32
2022-08-19T02:06:51.702Z,21.11
2022-08-19T02:09:18.918Z,20.95
2022-08-19T02:11:46.304Z,20.88
2022-08-19T02:14:14.132Z,20.84
2022-08-19T02:16:41.435Z,20.78
2022-08-19T02:19:08.680Z,20.82
2022-08-19T02:21:36.261Z,20.80
2022-08-19T02:24:04.050Z,20.84
2022-08-19T02:26:31.423Z,20.79
2022-08-19T02:28:58.608Z,20.78
2022-08-19T02:31:28.902Z,20.78
2022-08-19T02:33:57.227Z,20.84
2022-08-19T02:36:26.147Z,20.91
2022-08-19T02:38:54.272Z,20.94
2022-08-19T02:41:27.205Z,20.84
2022-08-19T02:44:26.825Z,20.85
2022-08-19T02:46:44.340Z,20.80
2022-08-19T02:49:11.507Z,20.82
2022-08-19T02:51:41.707Z,20.83
2022-08-19T02:54:11.330Z,20.81
2022-08-19T02:56:40.558Z,20.88
2022-08-19T02:59:09.224Z,20.83
2022-08-19T03:01:40.686Z,20.85
2022-08-19T03:04:09.698Z,20.82
2022-08-19T03:06:42.224Z,20.88
2022-08-19T03:09:09.874Z,20.75
2022-08-19T03:11:37.444Z,20.78
2022-08-19T03:14:07.006Z,20.83
2022-08-19T03:16:37.948Z,20.85
2022-08-19T03:19:05.457Z,20.85
2022-08-19T03:21:34.427Z,20.89
2022-08-19T03:24:08.105Z,20.76
2022-08-19T03:26:35.482Z,20.80
2022-08-19T03:29:06.404Z,20.85
2022-08-19T03:31:44.115Z,20.79
2022-08-19T03:34:19.070Z,20.87
2022-08-19T03:36:47.605Z,20.73
2022-08-19T03:39:15.360Z,20.67
2022-08-19T03:41:46.635Z,20.74
2022-08-19T03:44:19.127Z,20.68
2022-08-19T03:46:52.138Z,20.67
2022-08-19T03:49:20.855Z,20.71
2022-08-19T03:51:49.080Z,20.76
2022-08-19T03:54:18.843Z,20.79
2022-08-19T03:56:47.920Z,20.77
2022-08-19T03:59:16.784Z,20.77
2022-08-19T04:01:44.226Z,20.81
2022-08-19T04:04:11.617Z,20.84
2022-08-19T04:06:40.029Z,20.89
2022-08-19T04:09:10.347Z,20.81
2022-08-19T04:11:44.257Z,20.81
2022-08-19T04:14:15.215Z,20.77
2022-08-19T04:16:43.618Z,20.61
2022-08-19T04:19:11.058Z,20.60
2022-08-19T04:21:38.291Z,20.67
2022-08-19T04:24:05.892Z,20.59
2022-08-19T04:26:37.557Z,20.67
2022-08-19T04:29:15.151Z,20.54
2022-08-19T04:31:44.352Z,20.59
2022-08-19T04:34:13.760Z,20.37
2022-08-19T04:36:42.539Z,20.38
2022-08-19T04:39:13.869Z,20.24
2022-08-19T04:41:59.690Z,20.34
2022-08-19T04:44:27.034Z,20.39
2022-08-19T04:46:54.564Z,20.58
2022-08-19T04:49:23.443Z,20.62
2022-08-19T04:51:53.309Z,20.52
2022-08-19T04:54:37.120Z,20.47
2022-08-19T04:57:07.527Z,20.47
2022-08-19T04:59:35.026Z,20.59
2022-08-19T05:02:02.551Z,20.63
2022-08-19T05:04:31.907Z,20.70
2022-08-19T05:07:01.335Z,20.77
2022-08-19T05:09:55.776Z,20.87
2022-08-19T05:12:17.561Z,20.89
2022-08-19T05:14:46.544Z,20.94
2022-08-19T05:17:34.585Z,21.00
2022-08-19T05:20:20.685Z,21.00
2022-08-19T05:22:48.784Z,20.96
2022-08-19T05:25:20.420Z,20.98
2022-08-19T05:27:48.648Z,21.01
2022-08-19T05:30:16.724Z,21.13
2022-08-19T05:32:44.075Z,21.39
2022-08-19T05:35:12.479Z,21.52
2022-08-19T05:37:41.140Z,21.61
2022-08-19T05:40:09.386Z,21.76
2022-08-19T05:42:36.599Z,21.90
2022-08-19T05:45:05.338Z,22.02
2022-08-19T05:47:33.016Z,22.08
2022-08-19T05:50:00.344Z,22.15
2022-08-19T05:52:29.015Z,22.12
2022-08-19T05:54:57.672Z,22.07
2022-08-19T05:57:25.552Z,22.10
2022-08-19T05:59:58.266Z,22.21
2022-08-19T06:02:27.280Z,22.30
2022-08-19T06:04:54.547Z,22.40
2022-08-19T06:07:21.949Z,22.55
2022-08-19T06:09:58.960Z,22.72
2022-08-19T06:12:35.005Z,22.89
2022-08-19T06:15:11.476Z,23.10
2022-08-19T06:17:39.039Z,23.20
2022-08-19T06:20:14.654Z,23.32
2022-08-19T06:22:47.665Z,23.46
2022-08-19T06:25:15.739Z,23.45
2022-08-19T06:30:30.535Z,23.55
2022-08-19T06:32:57.921Z,23.49
2022-08-19T06:35:26.279Z,23.44
2022-08-19T06:37:54.596Z,23.53
2022-08-19T06:40:22.009Z,23.54
2022-08-19T06:42:54.573Z,23.59
2022-08-19T06:45:25.150Z,23.65
2022-08-19T06:48:01.832Z,23.55
2022-08-19T06:50:29.043Z,23.73
2022-08-19T06:52:56.502Z,23.93
2022-08-19T06:55:24.190Z,24.22
2022-08-19T06:57:54.182Z,24.57
2022-08-19T07:00:21.854Z,24.89
2022-08-19T07:02:56.155Z,25.22
2022-08-19T07:05:26.695Z,25.49
2022-08-19T07:07:54.075Z,25.54
2022-08-19T07:10:26.191Z,25.61
2022-08-19T07:12:53.560Z,25.78
2022-08-19T07:15:22.179Z,25.90
2022-08-19T07:17:52.782Z,25.93
2022-08-19T07:20:20.160Z,25.66
2022-08-19T07:22:47.530Z,25.41
2022-08-19T07:25:15.085Z,25.13
2022-08-19T07:27:42.332Z,24.98
2022-08-19T07:30:14.357Z,24.82
2022-08-19T07:32:43.287Z,24.66
2022-08-19T07:35:10.530Z,24.48
2022-08-19T07:37:39.228Z,24.42
2022-08-19T07:40:08.102Z,24.46
2022-08-19T07:42:35.302Z,24.34
2022-08-19T07:45:02.499Z,24.34
2022-08-19T07:47:49.775Z,24.29
2022-08-19T07:50:20.523Z,24.31
2022-08-19T07:52:50.448Z,24.20
2022-08-19T07:55:41.132Z,24.25
2022-08-19T07:58:08.231Z,24.17
2022-08-19T08:00:36.253Z,24.10
2022-08-19T08:03:03.472Z,24.03
2022-08-19T08:05:49.637Z,24.03
2022-08-19T08:08:43.851Z,24.14
2022-08-19T08:11:11.951Z,24.23
2022-08-19T08:13:43.080Z,24.32
2022-08-19T08:16:14.394Z,24.42
2022-08-19T08:18:43.339Z,24.46
2022-08-19T08:21:17.568Z,24.34
2022-08-19T08:23:45.046Z,24.42
2022-08-19T08:26:16.015Z,24.42
2022-08-19T08:28:47.999Z,24.29
2022-08-19T08:31:16.733Z,24.34
2022-08-19T08:33:44.099Z,24.18
2022-08-19T08:36:14.616Z,24.22
2022-08-19T08:38:43.162Z,24.30
2022-08-19T08:41:42.960Z,24.36
2022-08-19T08:44:20.148Z,24.37
2022-08-19T08:46:52.719Z,24.31
2022-08-19T08:49:44.564Z,24.17
2022-08-19T08:52:23.625Z,24.20
2022-08-19T08:54:55.419Z,24.17
2022-08-19T08:57:37.669Z,24.06
2022-08-19T09:00:15.476Z,24.09
2022-08-19T09:02:43.872Z,24.16
2022-08-19T09:05:16.317Z,24.12
2022-08-19T09:08:07.285Z,24.14
2022-08-19T09:10:43.975Z,24.14
2022-08-19T09:13:37.189Z,24.14
2022-08-19T09:16:11.725Z,24.20
2022-08-19T09:18:44.896Z,24.20
2022-08-19T09:21:12.298Z,24.20
2022-08-19T09:23:39.522Z,24.21
2022-08-19T09:26:16.386Z,24.20
2022-08-19T09:28:45.666Z,24.18
2022-08-19T09:31:19.493Z,24.15
2022-08-19T09:33:47.222Z,24.10
2022-08-19T09:36:24.317Z,23.99
2022-08-19T09:39:02.455Z,24.04
2022-08-19T09:41:30.207Z,24.07
2022-08-19T09:43:59.252Z,23.92
2022-08-19T09:46:28.400Z,23.92
2022-08-19T09:48:56.385Z,23.97
2022-08-19T09:51:27.193Z,23.87
2022-08-19T09:53:59.557Z,23.91
2022-08-19T09:56:26.758Z,23.93
2022-08-19T09:58:54.210Z,23.94
2022-08-19T10:01:25.011Z,23.77
2022-08-19T10:03:54.923Z,23.71
2022-08-19T10:06:38.154Z,23.79
2022-08-19T10:09:13.099Z,23.83
2022-08-19T10:11:54.335Z,23.76
2022-08-19T10:14:24.562Z,23.73
2022-08-19T10:16:52.408Z,23.73
2022-08-19T10:19:26.061Z,23.68
2022-08-19T10:21:54.359Z,23.64
2022-08-19T10:24:25.219Z,23.62
2022-08-19T10:26:55.798Z,23.73
2022-08-19T10:29:32.853Z,23.84
2022-08-19T10:32:03.147Z,23.89
2022-08-19T10:34:31.505Z,23.94
2022-08-19T10:37:01.772Z,23.76
2022-08-19T10:39:31.477Z,23.75
2022-08-19T10:42:00.208Z,23.69
2022-08-19T10:44:32.254Z,23.67
2022-08-19T10:46:59.971Z,23.69
2022-08-19T10:49:28.090Z,23.65
2022-08-19T10:52:18.794Z,23.57
2022-08-19T10:55:08.465Z,23.56
2022-08-19T11:00:25.001Z,23.54
2022-08-19T11:02:53.056Z,23.48
2022-08-19T11:05:20.751Z,23.49
2022-08-19T11:07:52.858Z,23.47
2022-08-19T11:10:21.950Z,23.49
2022-08-19T11:12:49.623Z,23.64
2022-08-19T11:15:17.390Z,23.60
2022-08-19T11:17:44.957Z,23.67
2022-08-19T11:20:16.038Z,23.80
2022-08-19T11:22:43.514Z,23.74
2022-08-19T11:25:12.035Z,23.59
2022-08-19T11:27:45.686Z,23.58
2022-08-19T11:30:14.691Z,23.43
2022-08-19T11:32:45.713Z,23.47
2022-08-19T11:35:14.673Z,23.35
2022-08-19T11:37:41.866Z,23.43
2022-08-19T11:40:09.850Z,23.38
2022-08-19T11:43:00.112Z,23.43
2022-08-19T11:45:28.925Z,23.44
2022-08-19T11:47:56.252Z,23.48
2022-08-19T11:50:24.466Z,23.36
2022-08-19T11:52:54.982Z,23.31
2022-08-19T11:55:22.228Z,23.30
2022-08-19T11:57:50.090Z,23.30
2022-08-19T12:00:17.549Z,23.26
2022-08-19T12:02:44.747Z,23.32
2022-08-19T12:05:13.124Z,23.20
2022-08-19T12:07:45.715Z,23.22
2022-08-19T12:10:13.188Z,23.33
2022-08-19T12:12:43.509Z,23.27
2022-08-19T12:15:12.001Z,23.28
2022-08-19T12:17:39.850Z,23.29
2022-08-19T12:20:08.736Z,23.27
2022-08-19T12:22:36.403Z,23.33
2022-08-19T12:25:04.088Z,23.37
2022-08-19T12:27:39.967Z,23.40
2022-08-19T12:30:10.928Z,23.33
2022-08-19T12:32:38.772Z,23.30
2022-08-19T12:35:07.145Z,23.26
2022-08-19T12:37:34.971Z,23.28
2022-08-19T12:40:03.150Z,23.26
2022-08-19T12:42:31.437Z,23.23
2022-08-19T12:45:01.512Z,23.25
2022-08-19T12:47:28.715Z,23.24
2022-08-19T12:49:56.320Z,23.23
2022-08-19T12:52:28.198Z,23.27
2022-08-19T12:54:56.617Z,23.28
2022-08-19T12:57:32.763Z,23.30
2022-08-19T13:00:08.701Z,23.36
2022-08-19T13:02:38.552Z,23.43
2022-08-19T13:05:09.322Z,23.54
2022-08-19T13:07:39.134Z,23.58
2022-08-19T13:10:12.072Z,23.60
2022-08-19T13:12:41.824Z,23.62
2022-08-19T13:15:11.046Z,23.63
2022-08-19T13:17:39.749Z,23.58
2022-08-19T13:20:11.429Z,23.56
2022-08-19T13:22:39.476Z,23.58
2022-08-19T13:25:08.807Z,23.57
2022-08-19T13:27:36.490Z,23.60
2022-08-19T13:30:23.822Z,23.59
2022-08-19T13:33:09.354Z,23.58
2022-08-19T13:35:36.755Z,23.51
2022-08-19T13:38:05.850Z,23.54
2022-08-19T13:40:39.913Z,23.49
2022-08-19T13:43:17.425Z,23.60
2022-08-19T13:45:53.513Z,23.53
2022-08-19T13:48:20.934Z,23.50
2022-08-19T13:50:49.100Z,23.48
2022-08-19T13:53:17.244Z,23.53
2022-08-19T13:55:45.171Z,23.51
2022-08-19T13:58:13.055Z,23.53
2022-08-19T14:00:43.305Z,23.47
2022-08-19T14:03:11.003Z,23.43
2022-08-19T14:05:38.971Z,23.37
2022-08-19T14:08:06.287Z,23.39
2022-08-19T14:10:34.419Z,23.40
2022-08-19T14:13:03.819Z,23.40
2022-08-19T14:15:31.353Z,23.44
2022-08-19T14:17:58.620Z,23.51
2022-08-19T14:20:26.464Z,23.46
2022-08-19T14:22:55.638Z,23.48
2022-08-19T14:25:25.534Z,23.47
2022-08-19T14:27:53.058Z,23.49
2022-08-19T14:30:29.421Z,23.40
2022-08-19T14:33:01.531Z,23.40
2022-08-19T14:35:30.376Z,23.45
2022-08-19T14:37:59.052Z,23.39
2022-08-19T14:40:28.973Z,23.31
2022-08-19T14:43:00.501Z,23.22
2022-08-19T14:45:29.527Z,23.33
2022-08-19T14:47:56.840Z,23.32
2022-08-19T14:50:24.061Z,23.27
2022-08-19T14:52:57.868Z,23.18
2022-08-19T14:55:25.829Z,23.23
2022-08-19T14:57:53.090Z,23.28
2022-08-19T15:00:20.343Z,23.18
2022-08-19T15:02:51.725Z,23.15
2022-08-19T15:05:19.705Z,23.20
2022-08-19T15:07:47.259Z,23.26
2022-08-19T15:10:15.519Z,23.24
2022-08-19T15:12:43.642Z,23.17
2022-08-19T15:15:14.135Z,23.27
2022-08-19T15:17:54.315Z,23.26
2022-08-19T15:20:25.138Z,23.24
2022-08-19T15:22:52.326Z,23.19
2022-08-19T15:25:21.172Z,23.17
2022-08-19T15:27:49.026Z,23.19
2022-08-19T15:30:22.222Z,23.22
2022-08-19T15:32:49.966Z,23.28
2022-08-19T15:35:19.377Z,23.26
2022-08-19T15:37:49.507Z,23.36
2022-08-19T15:40:17.367Z,23.42
2022-08-19T15:42:44.717Z,23.38
2022-08-19T15:45:14.847Z,23.47
2022-08-19T15:47:42.223Z,23.45
2022-08-19T15:50:12.292Z,23.65
2022-08-19T15:52:56.980Z,23.66
2022-08-19T15:55:33.448Z,23.72
2022-08-19T15:58:29.334Z,23.84
2022-08-19T16:01:21.359Z,23.84
2022-08-19T16:04:14.563Z,23.83
2022-08-19T16:06:58.990Z,23.71
2022-08-19T16:09:29.239Z,23.67
2022-08-19T16:12:02.385Z,23.68
2022-08-19T16:14:31.268Z,23.70
2022-08-19T16:16:58.834Z,23.77
2022-08-19T16:19:26.378Z,23.69
2022-08-19T16:21:55.777Z,23.71
2022-08-19T16:24:25.685Z,23.67
2022-08-19T16:26:53.199Z,23.63
2022-08-19T16:29:34.040Z,23.45
2022-08-19T16:32:10.151Z,23.39
2022-08-19T16:34:40.305Z,23.25
2022-08-19T16:37:08.070Z,23.27
2022-08-19T16:39:35.352Z,23.20
2022-08-19T16:42:03.491Z,22.98
2022-08-19T16:44:35.701Z,22.99
2022-08-19T16:47:03.278Z,22.96
2022-08-19T16:49:52.965Z,22.94
2022-08-19T16:52:21.787Z,22.87
2022-08-19T16:54:49.313Z,22.88
2022-08-19T16:57:16.934Z,22.85
2022-08-19T16:59:48.950Z,22.82
2022-08-19T17:02:21.943Z,22.83
2022-08-19T17:04:57.301Z,22.80
2022-08-19T17:07:27.348Z,22.70
2022-08-19T17:09:55.100Z,22.62
2022-08-19T17:12:23.333Z,22.61
2022-08-19T17:14:59.151Z,22.46
2022-08-19T17:17:29.192Z,22.55
2022-08-19T17:19:58.589Z,22.56
2022-08-19T17:22:25.944Z,22.43
2022-08-19T17:24:54.053Z,22.44
2022-08-19T17:27:23.659Z,22.41
2022-08-19T17:29:51.115Z,22.40
2022-08-19T17:32:25.024Z,22.40
2022-08-19T17:34:54.101Z,22.39
2022-08-19T17:37:21.525Z,22.28
2022-08-19T17:39:48.798Z,22.13
2022-08-19T17:42:16.044Z,21.97
2022-08-19T17:44:48.623Z,21.99
2022-08-19T17:47:18.335Z,21.82
2022-08-19T17:49:45.546Z,21.79
2022-08-19T17:52:12.817Z,21.77
2022-08-19T17:54:40.028Z,21.82
2022-08-19T17:57:07.225Z,21.74
2022-08-19T17:59:34.698Z,21.71
2022-08-19T18:02:03.527Z,21.68
2022-08-19T18:04:31.607Z,21.67
2022-08-19T18:07:00.977Z,21.63
2022-08-19T18:09:41.717Z,21.72
2022-08-19T18:12:11.453Z,21.70
2022-08-19T18:14:40.068Z,21.70
2022-08-19T18:17:10.053Z,21.65
2022-08-19T18:19:45.856Z,21.83
2022-08-19T18:22:26.514Z,21.80
2022-08-19T18:24:54.083Z,21.88
2022-08-19T18:27:21.321Z,21.90
2022-08-19T18:29:48.989Z,21.85
2022-08-19T18:32:18.158Z,21.90
2022-08-19T18:34:50.914Z,21.92
2022-08-19T18:37:18.154Z,21.91
2022-08-19T18:40:04.158Z,21.88
2022-08-19T18:42:50.532Z,21.84
2022-08-19T18:45:36.589Z,21.79
2022-08-19T18:48:27.096Z,21.82
2022-08-19T18:50:56.466Z,21.87
2022-08-19T18:53:23.856Z,21.88
2022-08-19T18:55:55.429Z,21.80
2022-08-19T18:58:34.955Z,21.80
2022-08-19T19:01:25.295Z,21.86
2022-08-19T19:03:54.344Z,21.81
2022-08-19T19:06:23.085Z,21.83
2022-08-19T19:08:51.794Z,21.84
2022-08-19T19:11:33.860Z,21.82
2022-08-19T19:14:02.575Z,21.93
2022-08-19T19:16:31.283Z,22.00
2022-08-19T19:19:01.157Z,22.07
2022-08-19T19:21:30.852Z,22.02
2022-08-19T19:24:01.819Z,22.03
2022-08-19T19:26:29.095Z,22.08
2022-08-19T19:28:57.449Z,22.03
2022-08-19T19:31:26.579Z,22.08
2022-08-19T19:33:54.402Z,22.05
2022-08-19T19:36:22.387Z,22.08
2022-08-19T19:38:49.590Z,22.16
2022-08-19T19:41:25.029Z,22.17
2022-08-19T19:44:29.926Z,22.19
2022-08-19T19:46:48.412Z,22.20
2022-08-19T19:49:16.151Z,22.22
2022-08-19T19:51:43.791Z,22.20
2022-08-19T19:54:13.807Z,22.23
2022-08-19T19:56:43.650Z,22.09
2022-08-19T19:59:13.637Z,21.97
2022-08-19T20:01:46.132Z,21.99
2022-08-19T20:04:15.536Z,22.00
2022-08-19T20:06:43.644Z,21.90
2022-08-19T20:09:11.145Z,21.88
2022-08-19T20:11:53.425Z,21.89
2022-08-19T20:14:31.596Z,21.88
2022-08-19T20:16:59.732Z,21.87
2022-08-19T20:19:34.201Z,21.89
2022-08-19T20:22:01.843Z,21.90
2022-08-19T20:24:35.313Z,21.90
2022-08-19T20:27:04.099Z,21.83
2022-08-19T20:29:39.327Z,21.84
2022-08-19T20:32:09.951Z,21.92
2022-08-19T20:34:37.323Z,21.86
2022-08-19T20:37:04.937Z,21.92
2022-08-19T20:39:32.541Z,21.88
2022-08-19T20:42:04.437Z,21.92
2022-08-19T20:44:32.288Z,21.95
2022-08-19T20:47:03.599Z,21.96
2022-08-19T20:49:31.883Z,21.81
2022-08-19T20:52:03.141Z,21.75
2022-08-19T20:54:30.789Z,21.76
2022-08-19T20:56:58.191Z,21.78
2022-08-19T20:59:26.255Z,21.73
2022-08-19T21:01:54.260Z,21.81
2022-08-19T21:04:22.196Z,21.83
2022-08-19T21:06:50.299Z,21.77
2022-08-19T21:09:18.237Z,21.80
2022-08-19T21:11:45.567Z,21.84
2022-08-19T21:14:12.878Z,21.80
2022-08-19T21:16:40.142Z,21.75
2022-08-19T21:19:07.563Z,21.65
2022-08-19T21:21:34.973Z,21.66
2022-08-19T21:24:02.357Z,21.73
2022-08-19T21:26:29.579Z,21.78
2022-08-19T21:28:56.848Z,21.78
2022-08-19T21:31:24.283Z,21.80
2022-08-19T21:33:51.489Z,21.84
2022-08-19T21:36:18.673Z,21.85
2022-08-19T21:38:45.920Z,21.88
2022-08-19T21:41:13.144Z,21.87
2022-08-19T21:43:40.423Z,21.90
2022-08-19T21:46:08.887Z,21.91
2022-08-19T21:48:36.820Z,21.94
2022-08-19T21:51:04.302Z,21.93
2022-08-19T21:53:34.275Z,21.92
2022-08-19T21:56:06.350Z,21.93
2022-08-19T21:58:33.932Z,21.88
2022-08-19T22:01:05.905Z,21.93
2022-08-19T22:03:34.018Z,21.86
2022-08-19T22:06:01.535Z,21.90
2022-08-19T22:08:29.738Z,21.89
2022-08-19T22:10:59.193Z,21.92
2022-08-19T22:13:27.195Z,21.86
2022-08-19T22:15:55.269Z,21.85
2022-08-19T22:18:22.549Z,21.86
2022-08-19T22:20:50.211Z,21.78
2022-08-19T22:23:17.427Z,21.80
2022-08-19T22:25:47.989Z,21.86
2022-08-19T22:28:18.865Z,21.88
2022-08-19T22:30:54.927Z,21.86
2022-08-19T22:33:22.553Z,21.93
2022-08-19T22:35:51.930Z,21.93
2022-08-19T22:38:19.331Z,21.94
2022-08-19T22:40:48.463Z,21.88
2022-08-19T22:43:27.355Z,21.93
2022-08-19T22:45:55.963Z,21.95
2022-08-19T22:48:28.587Z,21.98
2022-08-19T22:51:15.394Z,21.95
2022-08-19T22:53:45.141Z,21.90
2022-08-19T22:56:15.490Z,21.85
2022-08-19T22:58:43.370Z,21.82
2022-08-19T23:01:11.588Z,21.86
2022-08-19T23:03:50.485Z,21.79
2022-08-19T23:06:19.245Z,21.85
2022-08-19T23:08:46.697Z,21.85
2022-08-19T23:11:13.962Z,21.79
2022-08-19T23:13:42.204Z,21.81
2022-08-19T23:16:09.636Z,21.80
2022-08-19T23:18:36.942Z,21.69
2022-08-19T23:21:09.556Z,21.64
2022-08-19T23:23:37.617Z,21.68
2022-08-19T23:26:06.679Z,21.69
2022-08-19T23:28:57.531Z,21.73
2022-08-19T23:31:26.503Z,21.72
2022-08-19T23:33:53.705Z,21.70
2022-08-19T23:36:21.188Z,21.69
2022-08-19T23:38:50.508Z,21.75
2022-08-19T23:41:18.931Z,21.62
2022-08-19T23:43:46.216Z,21.47
2022-08-19T23:46:28.367Z,21.51
2022-08-19T23:48:56.502Z,21.46
2022-08-19T23:51:26.353Z,21.31
2022-08-19T23:53:53.692Z,21.11
2022-08-19T23:56:21.412Z,21.18
2022-08-19T23:58:49.073Z,21.28
